Kishiwada, Japan
Current Conditions -  °F | °C
As of 12:30 PM on Wednesday 22 Oct 2014 (Local Time) from RJBB Reporting Station
Rain Showers Rain Showers  
Wind Chill: 66°   Ceiling: 4500
Heat Index: 66°   Visibility: 6mi
Dew Point: 55°   Wind: 21mph
Humidity: 68%   Direction: 30°NNE
Pressure: 29.83"   Gusts: NA
Location:  34.47°N, 135.39°E
Report Text: RJBB 220330Z 03018KT 9999 -SHRA FEW010 SCT025 BKN045 19/13 Q1010 NOSIG
Loading
Personal Weather Stations






























Interactive Weather Map
Tropical Storm Tracking
New forecast layout! Learn more

10-Day Weather Forecast

Advertisements
Track Severe Weather on mobile